Time;durP1;ratioP1;P1;durP2;ratioP2;P2;SDS_P1;SDS_P2;PMS_P1;PMS_P2;Temp;Humidity;BMP_temperature;BMP_pressure;BME280_temperature;BME280_humidity;BME280_pressure;Samples;Min_cycle;Max_cycle;Signal;HPM_P1;HPM_P2
2022/12/06 00:00:42;;;;;;;45.35;16.13;;;;;;;4.67;100.00;98322.41;5059982;28;20086;-81
2022/12/06 00:03:07;;;;;;;43.28;15.80;;;;;;;4.61;100.00;98309.31;5071526;28;20533;-80
2022/12/06 00:05:33;;;;;;;50.90;17.85;;;;;;;4.68;100.00;98318.81;5059598;28;20110;-81
2022/12/06 00:07:59;;;;;;;41.90;15.02;;;;;;;4.67;100.00;98321.53;5059481;28;20032;-81
2022/12/06 00:10:24;;;;;;;47.95;16.17;;;;;;;4.67;100.00;98310.94;5091321;28;20035;-81
2022/12/06 00:12:50;;;;;;;52.15;15.85;;;;;;;4.67;100.00;98310.94;5059554;28;20070;-81
2022/12/06 00:15:16;;;;;;;47.95;15.65;;;;;;;4.61;100.00;98304.00;5074343;28;20469;-80
2022/12/06 00:17:41;;;;;;;47.85;14.90;;;;;;;4.63;100.00;98299.53;5059587;28;20521;-80
2022/12/06 00:20:08;;;;;;;42.50;13.90;;;;;;;4.60;100.00;98304.03;5075658;28;20028;-80
2022/12/06 00:22:33;;;;;;;44.60;15.95;;;;;;;4.62;100.00;98297.78;5059393;28;20075;-79
2022/12/06 00:24:59;;;;;;;66.45;21.40;;;;;;;4.49;100.00;98282.28;5058972;28;20032;-80
2022/12/06 00:27:24;;;;;;;53.17;18.73;;;;;;;4.40;100.00;98287.81;5059185;28;20046;-80
2022/12/06 00:29:50;;;;;;;47.80;16.83;;;;;;;4.40;100.00;98293.94;5075964;28;20020;-80
2022/12/06 00:32:15;;;;;;;49.20;17.20;;;;;;;4.41;100.00;98298.34;5059013;28;20103;-79
2022/12/06 00:34:41;;;;;;;54.47;16.73;;;;;;;4.48;100.00;98313.19;5058889;28;20028;-80
2022/12/06 00:37:06;;;;;;;41.33;15.63;;;;;;;4.45;100.00;98309.75;5058985;28;20097;-80
2022/12/06 00:39:32;;;;;;;57.15;18.38;;;;;;;4.37;100.00;98308.13;5057506;28;20032;-80
2022/12/06 00:41:58;;;;;;;52.55;16.17;;;;;;;4.38;100.00;98307.25;5058930;28;20035;-80
2022/12/06 00:44:23;;;;;;;54.70;17.23;;;;;;;4.38;100.00;98315.19;5075716;28;20028;-81
2022/12/06 00:46:49;;;;;;;45.78;17.05;;;;;;;4.48;100.00;98297.28;5058917;28;20483;-80
2022/12/06 00:49:15;;;;;;;46.88;15.43;;;;;;;4.69;100.00;98314.41;5058509;28;20089;-80
2022/12/06 00:51:41;;;;;;;48.17;16.67;;;;;;;4.71;100.00;98302.84;5058646;28;20027;-80
2022/12/06 00:54:07;;;;;;;44.25;15.70;;;;;;;4.55;100.00;98275.03;5075133;28;20422;-80
2022/12/06 00:56:36;;;;;;;47.92;16.20;;;;;;;4.50;100.00;98282.22;5058736;28;20035;-80
2022/12/06 00:59:02;;;;;;;44.88;15.23;;;;;;;4.48;100.00;98281.41;5058479;28;20039;-80
2022/12/06 01:01:29;;;;;;;39.72;15.60;;;;;;;4.48;100.00;98292.00;5058315;28;20027;-79
2022/12/06 01:04:00;;;;;;;54.97;17.52;;;;;;;4.49;100.00;98298.16;5058565;28;20431;-80
2022/12/06 01:06:28;;;;;;;39.95;15.63;;;;;;;4.53;100.00;98300.69;5075129;28;20111;-80
2022/12/06 01:08:54;;;;;;;46.17;16.40;;;;;;;4.60;100.00;98296.97;5058543;28;20024;-80
2022/12/06 01:11:21;;;;;;;48.90;15.98;;;;;;;4.60;100.00;98294.31;5057979;28;20016;-80
2022/12/06 01:13:47;;;;;;;46.33;16.60;;;;;;;4.47;100.00;98287.59;5058376;28;20042;-80
2022/12/06 01:16:19;;;;;;;39.53;15.40;;;;;;;4.49;100.00;98285.75;5057909;28;20036;-81
2022/12/06 01:18:45;;;;;;;39.47;14.60;;;;;;;4.47;100.00;98282.28;5052559;28;20464;-81
2022/12/06 01:21:17;;;;;;;35.88;14.43;;;;;;;4.23;100.00;98253.81;5046298;28;20493;-79
2022/12/06 01:23:43;;;;;;;;;;;;;;;4.29;100.00;98270.41;5046585;28;20035;-80
2022/12/06 01:26:20;;;;;;;36.90;13.40;;;;;;;4.28;100.00;98267.78;5046528;28;19912;-81
2022/12/06 01:28:46;;;;;;;37.42;13.18;;;;;;;4.24;100.00;98266.13;5042605;28;20036;-80
2022/12/06 01:31:12;;;;;;;42.83;15.07;;;;;;;4.22;100.00;98274.09;5050888;28;20024;-81
2022/12/06 01:33:38;;;;;;;48.10;16.52;;;;;;;4.39;100.00;98294.88;5049115;28;20526;-81
2022/12/06 01:36:04;;;;;;;50.42;19.13;;;;;;;4.45;100.00;98284.13;5064833;28;20020;-81
2022/12/06 01:38:29;;;;;;;57.92;21.08;;;;;;;4.40;100.00;98274.56;5071423;28;20032;-80
2022/12/06 01:40:55;;;;;;;45.33;15.88;;;;;;;4.22;100.00;98270.59;5057045;28;20029;-80
2022/12/06 01:43:34;;;;;;;48.75;16.23;;;;;;;4.37;100.00;98286.97;5039945;28;20399;-80
2022/12/06 01:46:21;;;;;;;41.55;13.60;;;;;;;4.41;100.00;98282.47;5051335;28;20031;-81
2022/12/06 01:48:51;;;;;;;43.30;14.20;;;;;;;4.42;100.00;98288.63;5055693;28;20468;-80
2022/12/06 01:51:16;;;;;;;40.30;14.23;;;;;;;4.41;100.00;98277.16;5044788;28;20549;-81
2022/12/06 01:53:44;;;;;;;41.35;14.30;;;;;;;4.31;100.00;98278.28;5044446;28;20032;-79
2022/12/06 01:56:10;;;;;;;45.92;14.60;;;;;;;4.43;100.00;98275.31;5045504;28;20028;-80
2022/12/06 01:58:39;;;;;;;41.50;13.00;;;;;;;4.34;100.00;98272.91;5066420;28;20027;-80
2022/12/06 02:01:07;;;;;;;47.10;13.73;;;;;;;4.28;100.00;98273.06;5049260;28;20032;-80
2022/12/06 02:03:33;;;;;;;48.97;14.93;;;;;;;4.39;100.00;98279.00;5055537;28;20039;-80
2022/12/06 02:06:00;;;;;;;46.95;16.40;;;;;;;4.38;100.00;98279.88;5049850;28;20032;-80
2022/12/06 02:08:26;;;;;;;41.58;15.02;;;;;;;4.46;100.00;98274.41;5045359;28;20036;-80
2022/12/06 02:10:52;;;;;;;39.05;14.88;;;;;;;4.28;100.00;98250.13;5048946;28;20031;-81
2022/12/06 02:13:18;;;;;;;43.30;14.43;;;;;;;4.21;100.00;98247.69;5055019;28;20418;-80
2022/12/06 02:15:49;;;;;;;42.88;14.73;;;;;;;4.30;100.00;98258.03;5039616;28;20045;-80
2022/12/06 02:18:45;;;;;;;44.83;14.50;;;;;;;4.30;100.00;98248.31;5037158;28;20469;-80
2022/12/06 02:21:30;;;;;;;37.63;13.52;;;;;;;4.26;100.00;98237.84;5053394;28;20025;-79
2022/12/06 02:24:14;;;;;;;39.00;11.82;;;;;;;4.35;100.00;98250.84;5053505;28;20170;-79
2022/12/06 02:26:48;;;;;;;32.92;12.13;;;;;;;4.31;100.00;98239.44;5053450;28;20032;-79
2022/12/06 02:29:19;;;;;;;39.55;13.00;;;;;;;4.16;100.00;98234.56;5036994;28;20115;-80
2022/12/06 02:32:03;;;;;;;40.77;12.70;;;;;;;4.31;100.00;98254.47;5053211;28;20385;-81
2022/12/06 02:34:53;;;;;;;35.42;12.90;;;;;;;4.30;100.00;98258.91;5036932;28;20066;-80
2022/12/06 02:37:28;;;;;;;41.95;14.95;;;;;;;4.34;100.00;98249.97;5048384;28;20052;-80
2022/12/06 02:40:10;;;;;;;43.50;14.02;;;;;;;4.32;100.00;98251.78;5036809;28;20039;-80
2022/12/06 02:42:58;;;;;;;34.47;12.43;;;;;;;4.38;100.00;98264.00;5037103;28;20024;-80
2022/12/06 02:45:32;;;;;;;45.58;12.68;;;;;;;4.31;100.00;98257.97;5037021;28;20029;-81
2022/12/06 02:48:03;;;;;;;44.70;14.85;;;;;;;4.30;100.00;98252.75;5053532;28;20047;-80
2022/12/06 02:50:32;;;;;;;42.70;13.13;;;;;;;4.26;100.00;98245.78;5036927;28;20090;-81
2022/12/06 02:53:00;;;;;;;36.85;12.73;;;;;;;4.29;100.00;98251.00;5036656;28;20514;-80
2022/12/06 02:55:26;;;;;;;33.33;12.75;;;;;;;4.33;100.00;98252.66;5036737;28;20032;-80
2022/12/06 02:57:53;;;;;;;40.17;12.32;;;;;;;4.30;100.00;98250.09;5036958;28;20107;-79
2022/12/06 03:00:35;;;;;;;44.25;14.25;;;;;;;4.35;100.00;98256.13;5036693;28;20031;-79
2022/12/06 03:03:30;;;;;;;38.42;12.93;;;;;;;4.34;100.00;98251.72;5039996;28;20032;-80
2022/12/06 03:06:02;;;;;;;37.88;12.80;;;;;;;4.23;100.00;98248.50;5054837;28;20032;-80
2022/12/06 03:08:30;;;;;;;42.85;12.73;;;;;;;4.12;100.00;98242.63;5075263;28;20086;-81
2022/12/06 03:10:59;;;;;;;38.38;12.80;;;;;;;4.03;100.00;98233.13;5057802;28;20039;-81
2022/12/06 03:13:35;;;;;;;44.47;13.85;;;;;;;3.93;100.00;98231.63;5040998;28;20032;-81
2022/12/06 03:16:00;;;;;;;52.47;13.55;;;;;;;4.03;100.00;98243.69;5052333;28;20048;-81
2022/12/06 03:18:48;;;;;;;48.30;14.30;;;;;;;3.99;100.00;98243.84;5077544;28;20506;-81
2022/12/06 03:21:20;;;;;;;44.72;13.20;;;;;;;4.00;100.00;98240.28;5077356;28;20415;-80
2022/12/06 03:23:47;;;;;;;49.65;13.60;;;;;;;4.06;100.00;98248.91;5060877;28;20032;-81
2022/12/06 03:26:15;;;;;;;51.38;13.02;;;;;;;4.07;100.00;98255.97;5060513;28;20016;-81
2022/12/06 03:28:42;;;;;;;48.90;14.38;;;;;;;4.13;100.00;98260.22;5078321;28;20028;-85
2022/12/06 03:31:10;;;;;;;53.10;14.70;;;;;;;4.27;100.00;98264.28;5044365;28;20020;-80
2022/12/06 03:33:41;;;;;;;57.28;16.13;;;;;;;4.23;100.00;98262.63;5060155;28;20023;-80
2022/12/06 03:36:07;;;;;;;52.95;15.30;;;;;;;4.13;100.00;98254.94;5060306;28;20020;-79
2022/12/06 03:38:37;;;;;;;52.85;13.35;;;;;;;4.15;100.00;98255.78;5060271;28;20028;-81
2022/12/06 03:41:04;;;;;;;61.58;14.48;;;;;;;4.06;100.00;98248.06;5059942;28;20035;-81
2022/12/06 03:43:31;;;;;;;43.75;13.13;;;;;;;4.10;100.00;98247.06;5059985;28;20030;-81
2022/12/06 03:46:15;;;;;;;58.03;14.27;;;;;;;4.17;100.00;98259.25;5060231;28;20498;-81
2022/12/06 03:48:53;;;;;;;55.38;13.45;;;;;;;4.23;100.00;98257.31;5059860;28;20034;-81
2022/12/06 03:51:27;;;;;;;48.22;13.55;;;;;;;4.07;100.00;98226.84;5076397;28;20107;-81
2022/12/06 03:53:57;;;;;;;47.95;13.45;;;;;;;4.22;100.00;98246.75;5059926;28;20048;-80
2022/12/06 03:56:23;;;;;;;49.63;13.85;;;;;;;4.18;100.00;98239.81;5059570;28;20507;-80
2022/12/06 03:58:49;;;;;;;51.50;14.43;;;;;;;4.25;100.00;98257.25;5076626;28;20023;-80
2022/12/06 04:01:14;;;;;;;60.55;15.07;;;;;;;4.22;100.00;98246.75;5059630;28;20055;-80
2022/12/06 04:03:40;;;;;;;54.08;15.95;;;;;;;4.21;100.00;98248.56;5059823;28;20039;-81
2022/12/06 04:06:07;;;;;;;45.90;14.95;;;;;;;4.28;100.00;98241.31;5059790;28;20488;-81
2022/12/06 04:08:32;;;;;;;48.50;15.40;;;;;;;4.20;100.00;98232.69;5059425;28;20070;-81
2022/12/06 04:10:58;;;;;;;67.38;19.75;;;;;;;4.24;100.00;98251.13;5059573;28;20052;-80
2022/12/06 04:13:24;;;;;;;52.45;17.30;;;;;;;4.29;100.00;98251.00;5059141;28;20027;-80
2022/12/06 04:15:54;;;;;;;53.10;16.65;;;;;;;4.29;100.00;98248.34;5059343;28;20193;-81
2022/12/06 04:18:20;;;;;;;48.58;16.13;;;;;;;4.11;100.00;98233.81;5059283;28;20069;-79
2022/12/06 04:23:49;;;;;;;59.75;17.63;;;;;;;4.24;100.00;98234.38;5078910;28;20112;-80
2022/12/06 04:26:17;;;;;;;52.58;17.52;;;;;;;4.27;100.00;98229.00;5059642;28;20088;-80
2022/12/06 04:39:41;;;;;;;56.47;18.55;;;;;;;4.04;100.00;98240.16;5078848;28;20042;-80
2022/12/06 04:44:50;;;;;;;66.95;17.58;;;;;;;4.02;100.00;98239.34;5078559;28;20081;-81
2022/12/06 04:47:16;;;;;;;53.40;16.55;;;;;;;4.15;100.00;98255.78;5059017;28;20059;-81
2022/12/06 04:49:41;;;;;;;54.63;16.92;;;;;;;4.10;100.00;98242.66;5058812;28;20505;-81
2022/12/06 04:52:07;;;;;;;77.15;17.15;;;;;;;4.00;100.00;98241.13;5075618;28;20048;-80
2022/12/06 04:54:33;;;;;;;59.95;17.75;;;;;;;3.98;100.00;98236.78;5058843;28;20032;-73
2022/12/06 04:56:59;;;;;;;78.70;16.73;;;;;;;3.89;100.00;98239.66;5074834;28;20028;-74
2022/12/06 04:59:25;;;;;;;76.00;17.52;;;;;;;3.74;100.00;98236.50;5074922;28;20035;-73
2022/12/06 05:01:52;;;;;;;100.57;18.60;;;;;;;3.74;100.00;98249.72;5074766;28;20052;-74
2022/12/06 05:04:17;;;;;;;102.82;17.75;;;;;;;3.68;100.00;98236.63;5074555;28;20020;-73
2022/12/06 05:06:43;;;;;;;85.95;21.42;;;;;;;3.76;100.00;98257.59;5092610;28;20047;-73
2022/12/06 05:09:09;;;;;;;90.95;23.20;;;;;;;3.75;100.00;98248.78;5074841;28;20036;-74
2022/12/06 05:11:35;;;;;;;78.63;21.40;;;;;;;3.74;100.00;98262.94;5074687;28;20024;-73
2022/12/06 05:14:01;;;;;;;80.05;20.88;;;;;;;3.80;100.00;98273.38;5074789;28;20024;-74
2022/12/06 05:16:26;;;;;;;79.47;21.23;;;;;;;3.84;100.00;98271.53;5074534;28;20047;-74
2022/12/06 05:18:52;;;;;;;58.08;18.98;;;;;;;3.75;100.00;98266.47;5057605;28;20027;-74
2022/12/06 05:21:20;;;;;;;56.33;21.15;;;;;;;3.86;100.00;98268.84;5074371;28;20039;-75
2022/12/06 05:23:46;;;;;;;59.65;18.60;;;;;;;3.84;100.00;98268.91;5074212;28;20024;-76
2022/12/06 05:26:14;;;;;;;55.05;18.52;;;;;;;3.95;100.00;98265.97;5074055;28;20024;-78
2022/12/06 05:28:40;;;;;;;45.03;17.13;;;;;;;3.95;100.00;98263.31;5074280;28;20036;-77
2022/12/06 05:31:06;;;;;;;44.35;13.95;;;;;;;3.92;100.00;98263.41;5092019;28;20028;-76
2022/12/06 05:33:32;;;;;;;45.22;14.10;;;;;;;3.86;100.00;98250.31;5076198;28;20399;-82
2022/12/06 05:35:57;;;;;;;47.63;13.95;;;;;;;3.83;100.00;98246.84;5075126;28;20020;-79
2022/12/06 05:38:23;;;;;;;48.88;13.63;;;;;;;4.01;100.00;98255.25;5058133;28;20024;-81
2022/12/06 05:40:49;;;;;;;41.40;13.50;;;;;;;3.91;100.00;98237.88;5059578;28;20476;-82
2022/12/06 05:43:15;;;;;;;40.47;14.10;;;;;;;3.93;100.00;98234.28;5057909;28;20471;-82
2022/12/06 05:45:41;;;;;;;36.50;12.73;;;;;;;3.93;100.00;98220.16;5057964;28;20032;-81
2022/12/06 05:48:07;;;;;;;47.17;12.82;;;;;;;4.07;100.00;98244.50;5057539;28;20051;-80
2022/12/06 05:50:33;;;;;;;52.88;13.95;;;;;;;4.11;100.00;98230.28;5074234;28;20035;-80
2022/12/06 05:52:59;;;;;;;55.08;14.00;;;;;;;4.12;100.00;98226.75;5057519;28;20428;-80
2022/12/06 05:55:25;;;;;;;42.15;12.80;;;;;;;4.09;100.00;98217.06;5057646;28;20042;-81
2022/12/06 05:57:51;;;;;;;43.17;13.32;;;;;;;4.04;100.00;98218.09;5057189;28;20020;-80
2022/12/06 06:00:18;;;;;;;43.70;13.63;;;;;;;3.85;100.00;98199.16;5057408;28;20403;-80
2022/12/06 06:02:44;;;;;;;46.03;13.05;;;;;;;3.81;100.00;98197.53;5057102;28;20118;-80
2022/12/06 06:05:10;;;;;;;54.28;12.85;;;;;;;3.73;100.00;98215.34;5056977;28;20028;-79
2022/12/06 06:07:36;;;;;;;46.13;13.15;;;;;;;3.83;100.00;98211.59;5057512;28;20093;-79
2022/12/06 06:10:03;;;;;;;50.22;13.90;;;;;;;3.83;100.00;98214.22;5057110;28;20020;-80
2022/12/06 06:12:28;;;;;;;41.47;14.18;;;;;;;3.78;100.00;98209.03;5058395;28;20028;-84
2022/12/06 06:14:54;;;;;;;44.78;14.95;;;;;;;3.88;100.00;98224.72;5073890;28;20093;-84
2022/12/06 06:17:20;;;;;;;60.97;19.42;;;;;;;3.81;100.00;98216.06;5053903;28;20111;-84
2022/12/06 06:19:45;;;;;;;53.03;17.30;;;;;;;3.84;100.00;98222.13;5056593;28;20048;-84
2022/12/06 06:22:11;;;;;;;39.97;14.32;;;;;;;3.77;100.00;98206.44;5058452;28;20548;-84
2022/12/06 06:24:38;;;;;;;38.53;12.50;;;;;;;3.93;100.00;98215.75;5068756;28;20024;-83
2022/12/06 06:27:04;;;;;;;29.50;11.68;;;;;;;3.83;100.00;98216.88;5053480;28;20032;-83
2022/12/06 06:29:30;;;;;;;25.45;9.55;;;;;;;3.75;100.00;98211.75;5058514;28;20524;-83
2022/12/06 06:31:55;;;;;;;31.30;10.38;;;;;;;3.79;100.00;98207.25;5045835;28;20021;-84
2022/12/06 06:34:21;;;;;;;26.60;9.20;;;;;;;3.71;100.00;98196.88;5058093;28;20031;-84
2022/12/06 06:36:46;;;;;;;30.58;10.20;;;;;;;3.89;100.00;98205.25;5074769;28;20107;-84
2022/12/06 06:39:13;;;;;;;26.30;8.27;;;;;;;3.92;100.00;98199.91;5063699;28;20035;-84
2022/12/06 06:41:38;;;;;;;34.35;9.85;;;;;;;3.98;100.00;98191.81;5043983;28;20039;-83
2022/12/06 06:44:04;;;;;;;19.40;7.60;;;;;;;4.17;100.00;98193.94;5056927;28;20023;-83
2022/12/06 06:46:30;;;;;;;18.42;8.27;;;;;;;4.05;100.00;98188.09;5052816;28;20028;-83
2022/12/06 06:48:55;;;;;;;22.33;9.77;;;;;;;4.13;100.00;98175.53;5037498;28;20021;-82
2022/12/06 06:51:21;;;;;;;28.50;10.65;;;;;;;4.11;100.00;98159.69;5039663;28;20476;-80
2022/12/06 06:53:46;;;;;;;26.98;10.55;;;;;;;4.22;100.00;98167.34;5047001;28;20024;-83
2022/12/06 06:56:12;;;;;;;64.38;12.18;;;;;;;4.12;100.00;98156.13;5071653;28;20028;-83
2022/12/06 06:58:38;;;;;;;48.30;12.60;;;;;;;4.12;100.00;98168.50;5050277;28;20031;-83
2022/12/06 07:01:06;;;;;;;59.28;16.05;;;;;;;4.23;100.00;98166.44;5081872;28;20483;-81
2022/12/06 07:03:32;;;;;;;43.25;15.32;;;;;;;4.20;100.00;98163.88;5081241;28;20037;-83
2022/12/06 07:06:00;;;;;;;46.22;14.35;;;;;;;4.21;100.00;98163.84;5082263;28;20135;-82
2022/12/06 07:08:28;;;;;;;40.20;13.07;;;;;;;4.50;100.00;98165.66;5070166;28;20052;-82
2022/12/06 07:10:54;;;;;;;50.38;16.02;;;;;;;4.46;100.00;98164.00;5077771;28;20031;-83
2022/12/06 07:13:23;;;;;;;51.08;15.63;;;;;;;4.62;100.00;98165.31;5040667;28;20023;-84
2022/12/06 07:15:49;;;;;;;51.45;18.75;;;;;;;4.63;100.00;98158.25;5047733;28;20615;-84
2022/12/06 07:18:16;;;;;;;49.47;18.55;;;;;;;4.83;100.00;98146.16;5078063;28;20028;-82
2022/12/06 07:20:42;;;;;;;57.53;17.98;;;;;;;5.01;100.00;98149.19;5061088;28;20028;-82
2022/12/06 07:23:08;;;;;;;48.92;18.02;;;;;;;5.30;100.00;98149.13;5076802;28;20029;-83
2022/12/06 07:25:34;;;;;;;52.70;19.48;;;;;;;5.32;100.00;98134.06;5086118;28;20020;-83
2022/12/06 07:28:01;;;;;;;49.50;20.02;;;;;;;4.99;100.00;98116.53;5077913;28;20028;-83
2022/12/06 07:30:26;;;;;;;54.00;20.30;;;;;;;5.22;100.00;98124.66;5076499;28;20051;-83
2022/12/06 07:32:53;;;;;;;60.00;20.88;;;;;;;5.51;100.00;98127.22;5086617;28;20024;-83
2022/12/06 07:35:19;;;;;;;39.65;15.45;;;;;;;5.64;100.00;98112.66;5079322;28;20111;-84
2022/12/06 07:37:45;;;;;;;36.78;14.18;;;;;;;6.25;100.00;98107.91;5069203;28;20028;-83
2022/12/06 07:40:12;;;;;;;28.42;11.68;;;;;;;6.53;100.00;98074.09;5075498;28;20447;-84
2022/12/06 07:45:22;;;;;;;33.28;13.52;;;;;;;7.46;100.00;98055.31;5078028;28;20118;-85
2022/12/06 07:47:48;;;;;;;31.92;13.40;;;;;;;8.69;100.00;98061.44;5085128;28;20486;-84
2022/12/06 07:50:16;;;;;;;27.40;11.98;;;;;;;9.92;100.00;98037.56;5082756;28;20099;-84
2022/12/06 07:52:42;;;;;;;22.33;10.77;;;;;;;10.21;100.00;97986.13;5080246;28;20032;-86
2022/12/06 07:55:10;;;;;;;21.63;10.50;;;;;;;10.42;100.00;97959.19;5092974;28;20043;-85
2022/12/06 07:57:36;;;;;;;20.27;10.18;;;;;;;10.67;100.00;97938.19;5089586;28;20400;-86
2022/12/06 08:00:04;;;;;;;30.05;11.65;;;;;;;10.55;100.00;97907.59;5073546;28;20036;-85
2022/12/06 08:02:30;;;;;;;25.42;12.20;;;;;;;11.18;98.14;97888.81;5089823;28;20057;-86
2022/12/06 08:04:57;;;;;;;26.58;11.98;;;;;;;11.28;96.58;97873.94;5088024;28;20031;-85
2022/12/06 08:07:23;;;;;;;28.27;11.15;;;;;;;11.07;97.46;97849.28;5077240;28;20055;-85
2022/12/06 08:09:50;;;;;;;26.33;11.63;;;;;;;12.00;90.13;97833.75;5085760;28;20127;-86
2022/12/06 08:12:16;;;;;;;25.40;12.25;;;;;;;11.04;92.66;97792.41;5087290;28;20032;-86
2022/12/06 08:14:42;;;;;;;36.38;13.27;;;;;;;11.51;94.67;97806.44;5095335;28;20543;-86
2022/12/06 08:17:07;;;;;;;34.08;15.75;;;;;;;11.87;92.06;97782.72;5095635;28;20019;-86
2022/12/06 08:19:33;;;;;;;44.25;18.67;;;;;;;12.43;87.00;97773.69;5096747;28;20036;-86
2022/12/06 08:21:59;;;;;;;42.67;19.48;;;;;;;12.42;87.03;97772.00;5091406;28;20110;-85
2022/12/06 08:24:25;;;;;;;54.17;21.58;;;;;;;13.07;84.43;97780.97;5097521;28;20028;-83
2022/12/06 08:26:52;;;;;;;47.72;21.40;;;;;;;13.02;82.70;97764.34;5096460;28;20019;-85
2022/12/06 08:29:18;;;;;;;48.25;21.02;;;;;;;12.65;84.59;97751.66;5096377;28;20522;-85
2022/12/06 08:31:44;;;;;;;55.50;24.17;;;;;;;13.42;82.04;97757.09;5096558;28;20560;-86
2022/12/06 08:34:11;;;;;;;53.78;23.52;;;;;;;12.72;84.06;97720.78;5096858;28;20020;-87
2022/12/06 08:36:39;;;;;;;64.10;26.27;;;;;;;12.41;86.33;97719.28;5097176;28;20036;-86
2022/12/06 08:39:27;;;;;;;61.40;23.48;;;;;;;12.98;84.76;97724.38;5097264;28;20367;-86
2022/12/06 08:41:54;;;;;;;36.80;13.85;;;;;;;13.02;82.60;97718.69;5097782;28;20044;-86
2022/12/06 08:44:20;;;;;;;27.75;12.02;;;;;;;13.18;80.66;97691.66;5080372;28;20020;-86
2022/12/06 08:46:46;;;;;;;31.88;15.18;;;;;;;13.54;79.17;97721.28;5098519;28;20051;-88
2022/12/06 08:49:14;;;;;;;21.42;11.25;;;;;;;14.23;76.11;97711.78;5063935;28;20115;-87
2022/12/06 08:51:40;;;;;;;27.63;12.25;;;;;;;13.86;77.45;97692.09;5062635;28;20064;-86
2022/12/06 08:54:07;;;;;;;23.50;9.90;;;;;;;15.06;72.25;97721.59;5062075;28;20078;-87
2022/12/06 08:56:35;;;;;;;23.55;9.52;;;;;;;14.96;68.75;97684.69;5097182;28;20023;-86
2022/12/06 08:59:02;;;;;;;20.83;10.45;;;;;;;14.76;70.55;97683.56;5061543;28;20034;-87
2022/12/06 09:01:30;;;;;;;21.98;10.13;;;;;;;15.90;67.81;97706.88;5062571;28;20484;-87
2022/12/06 09:03:58;;;;;;;22.08;10.35;;;;;;;16.94;62.78;97708.09;5096968;28;20131;-87
2022/12/06 09:06:23;;;;;;;27.27;12.15;;;;;;;17.42;59.59;97682.22;5082316;28;20028;-86
2022/12/06 09:08:49;;;;;;;18.27;6.88;;;;;;;17.17;56.72;97655.59;5096345;28;20095;-84
2022/12/06 09:11:16;;;;;;;16.33;6.57;;;;;;;17.10;55.03;97624.72;5058520;28;20024;-85
2022/12/06 09:13:42;;;;;;;9.82;6.47;;;;;;;16.67;55.97;97606.78;5059839;28;20058;-85
2022/12/06 09:16:15;;;;;;;15.15;7.25;;;;;;;16.44;57.96;97625.91;5086886;28;20050;-86
2022/12/06 09:18:42;;;;;;;15.10;6.95;;;;;;;16.51;58.17;97619.00;5063268;28;20535;-86
2022/12/06 09:21:11;;;;;;;12.52;7.15;;;;;;;16.40;57.77;97606.38;5079929;28;20061;-86
2022/12/06 09:23:37;;;;;;;10.32;6.13;;;;;;;15.53;59.43;97584.94;5071038;28;20106;-86
2022/12/06 09:26:05;;;;;;;41.15;7.50;;;;;;;15.10;60.53;97579.44;5055679;28;20041;-86
2022/12/06 09:28:35;;;;;;;13.05;6.60;;;;;;;14.93;62.01;97588.84;5057564;28;20039;-87
2022/12/06 09:31:02;;;;;;;12.93;7.38;;;;;;;15.16;62.51;97598.63;5045255;28;20020;-87
2022/12/06 09:33:28;;;;;;;16.73;7.40;;;;;;;15.90;60.09;97596.28;5064542;28;20039;-88
2022/12/06 09:35:53;;;;;;;14.55;7.47;;;;;;;14.59;63.41;97569.06;5098908;28;20028;-86
2022/12/06 09:38:21;;;;;;;15.80;7.78;;;;;;;15.87;59.11;97601.94;5095270;28;20032;-87
2022/12/06 09:41:08;;;;;;;15.45;8.02;;;;;;;15.86;58.07;97589.41;5081453;28;20525;-87
2022/12/06 09:44:02;;;;;;;10.32;6.30;;;;;;;15.38;59.71;97584.28;5063324;28;20517;-86
2022/12/06 09:46:55;;;;;;;11.68;6.18;;;;;;;15.39;58.76;97572.53;5061615;28;20028;-85
2022/12/06 09:49:39;;;;;;;14.18;7.15;;;;;;;14.70;62.12;97583.53;5078076;28;20050;-84
2022/12/06 09:52:39;;;;;;;16.20;5.75;;;;;;;14.15;63.23;97579.66;5076695;28;20062;-84
2022/12/06 09:55:21;;;;;;;12.73;7.25;;;;;;;14.73;62.36;97610.22;5076299;28;20098;-74
2022/12/06 09:58:11;;;;;;;23.60;11.27;;;;;;;15.10;61.68;97609.91;5065812;28;20399;-74
2022/12/06 10:00:46;;;;;;;14.70;7.18;;;;;;;15.16;60.99;97595.09;5091624;28;20503;-72
2022/12/06 10:03:30;;;;;;;13.02;5.55;;;;;;;15.25;61.15;97598.91;5074327;28;20407;-72
2022/12/06 10:06:04;;;;;;;12.60;5.82;;;;;;;15.64;58.81;97604.66;5091548;28;20055;-73
2022/12/06 10:08:48;;;;;;;11.80;6.72;;;;;;;15.56;58.33;97596.34;5069703;28;20032;-73
2022/12/06 10:11:32;;;;;;;9.68;5.70;;;;;;;15.28;59.18;97604.91;5072633;28;20024;-73
2022/12/06 10:14:35;;;;;;;16.23;7.43;;;;;;;15.65;59.24;97622.56;5089389;28;20027;-72
2022/12/06 10:17:22;;;;;;;10.90;6.57;;;;;;;16.45;56.24;97601.47;5072784;28;20514;-73
2022/12/06 10:19:50;;;;;;;17.23;8.38;;;;;;;16.64;55.76;97607.03;5072493;28;20028;-72
2022/12/06 10:22:51;;;;;;;13.85;8.07;;;;;;;16.28;55.99;97585.81;5091237;28;20035;-73
2022/12/06 10:25:47;;;;;;;10.30;6.53;;;;;;;15.99;55.74;97580.19;5062899;28;20047;-73
2022/12/06 10:28:41;;;;;;;13.77;7.18;;;;;;;16.45;55.49;97598.78;5056198;28;20089;-73
2022/12/06 10:31:26;;;;;;;18.02;10.18;;;;;;;16.44;54.97;97596.19;5084445;28;20032;-72
2022/12/06 10:33:59;;;;;;;15.55;8.27;;;;;;;16.15;55.56;97587.88;5072458;28;20042;-73
2022/12/06 10:36:33;;;;;;;42.78;20.13;;;;;;;15.86;55.99;97589.41;5070350;28;20084;-73
2022/12/06 10:39:07;;;;;;;23.10;11.77;;;;;;;15.80;57.07;97590.78;5090731;28;20024;-73
2022/12/06 10:41:50;;;;;;;16.45;9.57;;;;;;;16.49;54.75;97597.50;5072553;28;20502;-72
2022/12/06 10:44:36;;;;;;;20.45;10.95;;;;;;;17.23;53.09;97592.88;5090593;28;20031;-72
2022/12/06 10:47:06;;;;;;;16.25;7.57;;;;;;;16.85;53.25;97573.78;5086792;28;20029;-72
2022/12/06 10:50:03;;;;;;;8.15;5.18;;;;;;;16.27;53.53;97576.03;5047765;28;20038;-72
2022/12/06 10:52:50;;;;;;;18.92;9.13;;;;;;;16.68;53.93;97588.72;5103152;28;20609;-73
2022/12/06 10:55:30;;;;;;;11.48;5.95;;;;;;;17.02;52.72;97597.47;5068198;28;20466;-72
2022/12/06 10:58:14;;;;;;;13.60;6.72;;;;;;;17.42;52.32;97590.28;5072844;28;21096;-71
2022/12/06 11:00:55;;;;;;;18.92;8.80;;;;;;;17.53;51.68;97582.09;5090437;28;20039;-72
2022/12/06 11:03:33;;;;;;;13.95;7.47;;;;;;;18.02;50.84;97586.66;5072378;28;20031;-73
2022/12/06 11:06:03;;;;;;;11.68;6.53;;;;;;;17.78;50.64;97576.19;5072670;28;20051;-72
2022/12/06 11:08:32;;;;;;;13.23;7.43;;;;;;;17.58;51.72;97563.63;5072639;28;20027;-72
2022/12/06 11:10:58;;;;;;;16.10;7.15;;;;;;;18.43;49.52;97580.09;5090535;28;20111;-73
2022/12/06 11:13:36;;;;;;;9.85;5.68;;;;;;;18.51;48.57;97555.91;5072346;28;20545;-74
2022/12/06 11:16:11;;;;;;;12.98;6.78;;;;;;;18.67;48.23;97563.47;5072117;28;20052;-73
2022/12/06 11:18:37;;;;;;;12.13;7.53;;;;;;;18.54;48.22;97546.66;5055563;28;20097;-73
2022/12/06 11:21:27;;;;;;;16.48;9.32;;;;;;;19.09;47.66;97564.78;5072403;28;20032;-74
2022/12/06 11:24:00;;;;;;;16.92;7.72;;;;;;;17.93;48.91;97530.66;5075323;28;20027;-72
2022/12/06 11:26:53;;;;;;;12.43;6.90;;;;;;;17.81;49.69;97531.78;5076367;28;20062;-73
2022/12/06 11:29:18;;;;;;;14.38;8.02;;;;;;;17.37;50.36;97516.84;5076078;28;20028;-72
2022/12/06 11:32:16;;;;;;;13.02;8.40;;;;;;;16.70;52.51;97533.56;5076342;28;20023;-72
2022/12/06 11:34:47;;;;;;;22.00;10.48;;;;;;;15.93;54.12;97524.03;5032462;28;20032;-73
2022/12/06 11:37:16;;;;;;;16.88;7.95;;;;;;;15.42;56.28;97518.38;5059221;28;20024;-73
2022/12/06 11:39:42;;;;;;;15.77;8.00;;;;;;;15.01;57.89;97526.28;5076023;28;20016;-73
2022/12/06 11:42:11;;;;;;;13.85;6.78;;;;;;;15.65;56.09;97548.91;5076130;28;20060;-75
2022/12/06 11:44:43;;;;;;;18.33;7.90;;;;;;;15.82;56.34;97547.47;5073955;28;20030;-75
2022/12/06 11:47:16;;;;;;;13.98;7.80;;;;;;;15.27;56.51;97516.06;5127449;27;20042;-74
2022/12/06 11:49:44;;;;;;;12.40;8.10;;;;;;;14.82;58.71;97526.88;5113283;28;20509;-75
2022/12/06 11:52:17;;;;;;;21.50;10.68;;;;;;;14.50;60.46;97521.34;5130258;27;20066;-74